sensor_id;sensor_type;location;lat;lon;timestamp;temperature;humidity
63897;DHT22;50063;52.084;5.414;2022-09-16T00:01:35;13.80;99.90
63897;DHT22;50063;52.084;5.414;2022-09-16T00:04:02;13.90;99.90
63897;DHT22;50063;52.084;5.414;2022-09-16T00:06:29;13.90;99.90
63897;DHT22;50063;52.084;5.414;2022-09-16T00:08:57;13.80;99.90
63897;DHT22;50063;52.084;5.414;2022-09-16T00:11:23;13.80;99.90
63897;DHT22;50063;52.084;5.414;2022-09-16T00:13:50;13.90;99.90
63897;DHT22;50063;52.084;5.414;2022-09-16T00:16:19;13.90;99.90
63897;DHT22;50063;52.084;5.414;2022-09-16T00:18:46;13.90;99.90
63897;DHT22;50063;52.084;5.414;2022-09-16T00:21:12;14.10;99.90
63897;DHT22;50063;52.084;5.414;2022-09-16T00:23:39;14.10;99.90
63897;DHT22;50063;52.084;5.414;2022-09-16T00:26:06;13.90;99.90
63897;DHT22;50063;52.084;5.414;2022-09-16T00:28:32;14.10;99.90
63897;DHT22;50063;52.084;5.414;2022-09-16T00:31:00;14.00;99.90
63897;DHT22;50063;52.084;5.414;2022-09-16T00:33:27;14.00;99.90
63897;DHT22;50063;52.084;5.414;2022-09-16T00:36:10;13.90;99.90
63897;DHT22;50063;52.084;5.414;2022-09-16T00:38:37;13.80;99.90
63897;DHT22;50063;52.084;5.414;2022-09-16T00:41:04;13.80;99.90
63897;DHT22;50063;52.084;5.414;2022-09-16T00:46:13;13.60;99.90
63897;DHT22;50063;52.084;5.414;2022-09-16T00:48:40;13.70;99.90
63897;DHT22;50063;52.084;5.414;2022-09-16T00:51:07;13.70;99.90
63897;DHT22;50063;52.084;5.414;2022-09-16T00:53:39;13.90;99.90
63897;DHT22;50063;52.084;5.414;2022-09-16T00:56:08;13.80;99.90
63897;DHT22;50063;52.084;5.414;2022-09-16T00:58:44;13.80;99.90
63897;DHT22;50063;52.084;5.414;2022-09-16T01:01:12;13.90;99.90
63897;DHT22;50063;52.084;5.414;2022-09-16T01:03:41;13.70;99.90
63897;DHT22;50063;52.084;5.414;2022-09-16T01:06:08;13.70;99.90
63897;DHT22;50063;52.084;5.414;2022-09-16T01:08:36;13.70;99.90
63897;DHT22;50063;52.084;5.414;2022-09-16T01:11:02;13.80;99.90
63897;DHT22;50063;52.084;5.414;2022-09-16T01:13:29;13.80;99.90
63897;DHT22;50063;52.084;5.414;2022-09-16T01:21:08;13.70;99.90
63897;DHT22;50063;52.084;5.414;2022-09-16T01:23:46;13.50;99.90
63897;DHT22;50063;52.084;5.414;2022-09-16T01:28:48;13.70;99.90
63897;DHT22;50063;52.084;5.414;2022-09-16T01:31:36;13.70;99.90
63897;DHT22;50063;52.084;5.414;2022-09-16T01:36:46;13.60;99.90
63897;DHT22;50063;52.084;5.414;2022-09-16T01:39:37;13.60;99.90
63897;DHT22;50063;52.084;5.414;2022-09-16T01:42:22;13.60;99.90
63897;DHT22;50063;52.084;5.414;2022-09-16T01:47:26;13.50;99.90
63897;DHT22;50063;52.084;5.414;2022-09-16T01:50:05;13.40;99.90
63897;DHT22;50063;52.084;5.414;2022-09-16T01:52:36;13.20;99.90
63897;DHT22;50063;52.084;5.414;2022-09-16T01:55:05;13.30;99.90
63897;DHT22;50063;52.084;5.414;2022-09-16T01:57:38;13.20;99.90
63897;DHT22;50063;52.084;5.414;2022-09-16T02:00:08;13.20;99.90
63897;DHT22;50063;52.084;5.414;2022-09-16T02:02:38;13.30;99.90
63897;DHT22;50063;52.084;5.414;2022-09-16T02:05:14;13.40;99.90
63897;DHT22;50063;52.084;5.414;2022-09-16T02:07:44;13.40;99.90
63897;DHT22;50063;52.084;5.414;2022-09-16T02:10:15;13.30;99.90
63897;DHT22;50063;52.084;5.414;2022-09-16T02:12:43;13.30;99.90
63897;DHT22;50063;52.084;5.414;2022-09-16T02:15:11;13.20;99.90
63897;DHT22;50063;52.084;5.414;2022-09-16T02:17:40;13.30;99.90
63897;DHT22;50063;52.084;5.414;2022-09-16T02:20:09;13.20;99.90
63897;DHT22;50063;52.084;5.414;2022-09-16T02:22:38;13.30;99.90
63897;DHT22;50063;52.084;5.414;2022-09-16T02:25:05;13.40;99.90
63897;DHT22;50063;52.084;5.414;2022-09-16T02:27:34;13.20;99.90
63897;DHT22;50063;52.084;5.414;2022-09-16T02:30:02;13.30;99.90
63897;DHT22;50063;52.084;5.414;2022-09-16T02:32:31;13.20;99.90
63897;DHT22;50063;52.084;5.414;2022-09-16T02:34:59;13.30;99.90
63897;DHT22;50063;52.084;5.414;2022-09-16T02:37:27;13.20;99.90
63897;DHT22;50063;52.084;5.414;2022-09-16T02:39:56;13.30;99.90
63897;DHT22;50063;52.084;5.414;2022-09-16T02:42:28;13.20;99.90
63897;DHT22;50063;52.084;5.414;2022-09-16T02:44:55;13.10;99.90
63897;DHT22;50063;52.084;5.414;2022-09-16T02:52:23;13.20;99.90
63897;DHT22;50063;52.084;5.414;2022-09-16T02:55:04;13.40;99.90
63897;DHT22;50063;52.084;5.414;2022-09-16T02:57:36;13.50;99.90
63897;DHT22;50063;52.084;5.414;2022-09-16T03:00:04;13.40;99.90
63897;DHT22;50063;52.084;5.414;2022-09-16T03:02:32;13.30;99.90
63897;DHT22;50063;52.084;5.414;2022-09-16T03:04:59;13.30;99.90
63897;DHT22;50063;52.084;5.414;2022-09-16T03:07:26;13.30;99.90
63897;DHT22;50063;52.084;5.414;2022-09-16T03:09:53;13.10;99.90
63897;DHT22;50063;52.084;5.414;2022-09-16T03:17:47;13.40;99.90
63897;DHT22;50063;52.084;5.414;2022-09-16T03:22:54;13.40;99.90
63897;DHT22;50063;52.084;5.414;2022-09-16T03:28:13;13.40;99.90
63897;DHT22;50063;52.084;5.414;2022-09-16T03:30:46;13.40;99.90
63897;DHT22;50063;52.084;5.414;2022-09-16T03:33:18;13.30;99.90
63897;DHT22;50063;52.084;5.414;2022-09-16T03:35:47;13.30;99.90
63897;DHT22;50063;52.084;5.414;2022-09-16T03:38:15;13.20;99.90
63897;DHT22;50063;52.084;5.414;2022-09-16T03:40:43;13.20;99.90
63897;DHT22;50063;52.084;5.414;2022-09-16T03:43:13;13.10;99.90
63897;DHT22;50063;52.084;5.414;2022-09-16T03:45:41;13.10;99.90
63897;DHT22;50063;52.084;5.414;2022-09-16T03:48:09;13.20;99.90
63897;DHT22;50063;52.084;5.414;2022-09-16T03:50:35;13.40;99.90
63897;DHT22;50063;52.084;5.414;2022-09-16T03:53:02;13.20;99.90
63897;DHT22;50063;52.084;5.414;2022-09-16T03:55:29;13.40;99.90
63897;DHT22;50063;52.084;5.414;2022-09-16T03:57:55;13.40;99.90
63897;DHT22;50063;52.084;5.414;2022-09-16T04:00:22;13.40;99.90
63897;DHT22;50063;52.084;5.414;2022-09-16T04:02:49;13.30;99.90
63897;DHT22;50063;52.084;5.414;2022-09-16T04:05:15;13.40;99.90
63897;DHT22;50063;52.084;5.414;2022-09-16T04:07:42;13.40;99.90
63897;DHT22;50063;52.084;5.414;2022-09-16T04:10:09;13.30;99.90
63897;DHT22;50063;52.084;5.414;2022-09-16T04:12:38;13.30;99.90
63897;DHT22;50063;52.084;5.414;2022-09-16T04:15:04;13.20;99.90
63897;DHT22;50063;52.084;5.414;2022-09-16T04:17:31;13.30;99.90
63897;DHT22;50063;52.084;5.414;2022-09-16T04:19:58;13.40;99.90
63897;DHT22;50063;52.084;5.414;2022-09-16T04:22:27;13.40;99.90
63897;DHT22;50063;52.084;5.414;2022-09-16T04:24:53;13.30;99.90
63897;DHT22;50063;52.084;5.414;2022-09-16T04:27:20;13.20;99.90
63897;DHT22;50063;52.084;5.414;2022-09-16T04:29:46;13.20;99.90
63897;DHT22;50063;52.084;5.414;2022-09-16T04:32:13;13.20;99.90
63897;DHT22;50063;52.084;5.414;2022-09-16T04:34:39;13.20;99.90
63897;DHT22;50063;52.084;5.414;2022-09-16T04:37:06;13.10;99.90
63897;DHT22;50063;52.084;5.414;2022-09-16T04:39:33;13.00;99.90
63897;DHT22;50063;52.084;5.414;2022-09-16T04:41:59;13.00;99.90
63897;DHT22;50063;52.084;5.414;2022-09-16T04:44:26;13.00;99.90
63897;DHT22;50063;52.084;5.414;2022-09-16T04:46:55;13.00;99.90
63897;DHT22;50063;52.084;5.414;2022-09-16T04:49:22;12.80;99.90
63897;DHT22;50063;52.084;5.414;2022-09-16T04:51:49;12.80;99.90
63897;DHT22;50063;52.084;5.414;2022-09-16T04:54:17;12.80;99.90
63897;DHT22;50063;52.084;5.414;2022-09-16T04:56:44;12.90;99.90
63897;DHT22;50063;52.084;5.414;2022-09-16T04:59:12;13.00;99.90
63897;DHT22;50063;52.084;5.414;2022-09-16T05:01:38;12.80;99.90
63897;DHT22;50063;52.084;5.414;2022-09-16T05:04:06;12.80;99.90
63897;DHT22;50063;52.084;5.414;2022-09-16T05:06:33;12.70;99.90
63897;DHT22;50063;52.084;5.414;2022-09-16T05:09:01;12.80;99.90
63897;DHT22;50063;52.084;5.414;2022-09-16T05:11:28;12.80;99.90
63897;DHT22;50063;52.084;5.414;2022-09-16T05:14:02;12.70;99.90
63897;DHT22;50063;52.084;5.414;2022-09-16T05:16:29;12.80;99.90
63897;DHT22;50063;52.084;5.414;2022-09-16T05:18:57;12.80;99.90
63897;DHT22;50063;52.084;5.414;2022-09-16T05:21:25;12.80;99.90
63897;DHT22;50063;52.084;5.414;2022-09-16T05:23:52;12.90;99.90
63897;DHT22;50063;52.084;5.414;2022-09-16T05:26:20;12.80;99.90
63897;DHT22;50063;52.084;5.414;2022-09-16T05:28:47;12.80;99.90
63897;DHT22;50063;52.084;5.414;2022-09-16T05:33:44;12.90;99.90
63897;DHT22;50063;52.084;5.414;2022-09-16T05:36:12;12.90;99.90
63897;DHT22;50063;52.084;5.414;2022-09-16T05:38:39;12.90;99.90
63897;DHT22;50063;52.084;5.414;2022-09-16T05:41:06;12.90;99.90
63897;DHT22;50063;52.084;5.414;2022-09-16T05:43:33;12.90;99.90
63897;DHT22;50063;52.084;5.414;2022-09-16T05:46:00;12.80;99.90
63897;DHT22;50063;52.084;5.414;2022-09-16T05:48:27;12.80;99.90
63897;DHT22;50063;52.084;5.414;2022-09-16T05:50:54;12.80;99.90
63897;DHT22;50063;52.084;5.414;2022-09-16T05:53:22;12.90;99.90
63897;DHT22;50063;52.084;5.414;2022-09-16T05:56:09;12.70;99.90
63897;DHT22;50063;52.084;5.414;2022-09-16T05:58:36;12.80;99.90
63897;DHT22;50063;52.084;5.414;2022-09-16T06:01:03;12.70;99.90
63897;DHT22;50063;52.084;5.414;2022-09-16T06:03:31;12.70;99.90
63897;DHT22;50063;52.084;5.414;2022-09-16T06:08:30;12.70;99.90
63897;DHT22;50063;52.084;5.414;2022-09-16T06:10:59;12.70;99.90
63897;DHT22;50063;52.084;5.414;2022-09-16T06:13:26;12.60;99.90
63897;DHT22;50063;52.084;5.414;2022-09-16T06:15:53;12.70;99.90
63897;DHT22;50063;52.084;5.414;2022-09-16T06:18:20;12.60;99.90
63897;DHT22;50063;52.084;5.414;2022-09-16T06:20:48;12.70;99.90
63897;DHT22;50063;52.084;5.414;2022-09-16T06:23:14;12.70;99.90
63897;DHT22;50063;52.084;5.414;2022-09-16T06:25:42;12.60;99.90
63897;DHT22;50063;52.084;5.414;2022-09-16T06:28:09;12.70;99.90
63897;DHT22;50063;52.084;5.414;2022-09-16T06:30:37;12.60;99.90
63897;DHT22;50063;52.084;5.414;2022-09-16T06:33:04;12.50;99.90
63897;DHT22;50063;52.084;5.414;2022-09-16T06:35:32;12.60;99.90
63897;DHT22;50063;52.084;5.414;2022-09-16T06:37:58;12.70;99.90
63897;DHT22;50063;52.084;5.414;2022-09-16T06:40:25;12.90;99.90
63897;DHT22;50063;52.084;5.414;2022-09-16T06:42:52;12.80;99.90
63897;DHT22;50063;52.084;5.414;2022-09-16T06:45:25;12.90;99.90
63897;DHT22;50063;52.084;5.414;2022-09-16T06:47:51;13.00;99.90
63897;DHT22;50063;52.084;5.414;2022-09-16T06:50:18;13.00;99.90
63897;DHT22;50063;52.084;5.414;2022-09-16T06:52:48;13.10;99.90
63897;DHT22;50063;52.084;5.414;2022-09-16T06:55:15;13.00;99.90
63897;DHT22;50063;52.084;5.414;2022-09-16T06:57:44;13.00;99.90
63897;DHT22;50063;52.084;5.414;2022-09-16T07:00:11;13.10;99.90
63897;DHT22;50063;52.084;5.414;2022-09-16T07:02:38;13.20;99.90
63897;DHT22;50063;52.084;5.414;2022-09-16T07:05:05;13.20;99.90
63897;DHT22;50063;52.084;5.414;2022-09-16T07:07:32;13.10;99.90
63897;DHT22;50063;52.084;5.414;2022-09-16T07:09:59;13.10;99.90
63897;DHT22;50063;52.084;5.414;2022-09-16T07:12:26;13.20;99.90
63897;DHT22;50063;52.084;5.414;2022-09-16T07:14:53;13.20;99.90
63897;DHT22;50063;52.084;5.414;2022-09-16T07:17:19;13.30;99.90
63897;DHT22;50063;52.084;5.414;2022-09-16T07:19:49;13.20;99.90
63897;DHT22;50063;52.084;5.414;2022-09-16T07:22:15;13.30;99.90
63897;DHT22;50063;52.084;5.414;2022-09-16T07:24:42;13.30;99.90
63897;DHT22;50063;52.084;5.414;2022-09-16T07:27:09;13.20;99.90
63897;DHT22;50063;52.084;5.414;2022-09-16T07:29:35;13.30;99.90
63897;DHT22;50063;52.084;5.414;2022-09-16T07:32:02;13.20;99.90
63897;DHT22;50063;52.084;5.414;2022-09-16T07:34:29;13.30;99.90
63897;DHT22;50063;52.084;5.414;2022-09-16T07:36:56;13.40;99.90
63897;DHT22;50063;52.084;5.414;2022-09-16T07:39:22;13.40;99.90
63897;DHT22;50063;52.084;5.414;2022-09-16T07:41:51;13.40;99.90
63897;DHT22;50063;52.084;5.414;2022-09-16T07:44:18;13.40;99.90
63897;DHT22;50063;52.084;5.414;2022-09-16T07:46:44;13.50;99.90
63897;DHT22;50063;52.084;5.414;2022-09-16T07:49:11;13.50;99.90
63897;DHT22;50063;52.084;5.414;2022-09-16T07:51:38;13.40;99.90
63897;DHT22;50063;52.084;5.414;2022-09-16T07:54:06;13.50;99.90
63897;DHT22;50063;52.084;5.414;2022-09-16T07:56:34;13.70;99.90
63897;DHT22;50063;52.084;5.414;2022-09-16T07:59:01;13.80;99.90
63897;DHT22;50063;52.084;5.414;2022-09-16T08:01:28;13.90;99.90
63897;DHT22;50063;52.084;5.414;2022-09-16T08:03:57;14.10;99.90
63897;DHT22;50063;52.084;5.414;2022-09-16T08:06:25;14.40;99.90
63897;DHT22;50063;52.084;5.414;2022-09-16T08:08:53;14.50;99.90
63897;DHT22;50063;52.084;5.414;2022-09-16T08:11:21;14.60;99.90
63897;DHT22;50063;52.084;5.414;2022-09-16T08:13:47;14.70;99.90
63897;DHT22;50063;52.084;5.414;2022-09-16T08:16:15;14.60;99.90
63897;DHT22;50063;52.084;5.414;2022-09-16T08:18:42;14.60;99.90
63897;DHT22;50063;52.084;5.414;2022-09-16T08:21:27;14.70;99.90
63897;DHT22;50063;52.084;5.414;2022-09-16T08:23:55;14.60;99.90
63897;DHT22;50063;52.084;5.414;2022-09-16T08:26:22;14.60;99.90
63897;DHT22;50063;52.084;5.414;2022-09-16T08:28:48;14.70;99.90
63897;DHT22;50063;52.084;5.414;2022-09-16T08:31:34;14.70;99.90
63897;DHT22;50063;52.084;5.414;2022-09-16T08:34:01;14.70;99.90
63897;DHT22;50063;52.084;5.414;2022-09-16T08:36:27;14.60;99.90
63897;DHT22;50063;52.084;5.414;2022-09-16T08:38:54;14.60;99.90
63897;DHT22;50063;52.084;5.414;2022-09-16T08:46:29;14.50;99.90
63897;DHT22;50063;52.084;5.414;2022-09-16T08:49:02;14.50;99.90
63897;DHT22;50063;52.084;5.414;2022-09-16T08:51:32;14.50;99.90
63897;DHT22;50063;52.084;5.414;2022-09-16T08:54:00;14.50;99.90
63897;DHT22;50063;52.084;5.414;2022-09-16T08:56:28;14.70;99.90
63897;DHT22;50063;52.084;5.414;2022-09-16T08:58:56;14.80;99.90
63897;DHT22;50063;52.084;5.414;2022-09-16T09:01:33;14.60;99.90
63897;DHT22;50063;52.084;5.414;2022-09-16T09:04:00;14.50;99.90
63897;DHT22;50063;52.084;5.414;2022-09-16T09:11:42;15.00;99.90
63897;DHT22;50063;52.084;5.414;2022-09-16T09:22:12;15.60;99.90
63897;DHT22;50063;52.084;5.414;2022-09-16T09:27:30;15.30;99.90
63897;DHT22;50063;52.084;5.414;2022-09-16T09:40:39;14.70;99.90
63897;DHT22;50063;52.084;5.414;2022-09-16T09:45:42;14.90;99.90
63897;DHT22;50063;52.084;5.414;2022-09-16T09:48:22;15.00;99.90
63897;DHT22;50063;52.084;5.414;2022-09-16T09:50:50;15.20;99.90
63897;DHT22;50063;52.084;5.414;2022-09-16T09:53:28;15.40;99.90
63897;DHT22;50063;52.084;5.414;2022-09-16T09:55:59;15.40;99.90
63897;DHT22;50063;52.084;5.414;2022-09-16T09:58:33;15.50;99.90
63897;DHT22;50063;52.084;5.414;2022-09-16T10:01:03;15.60;99.90
63897;DHT22;50063;52.084;5.414;2022-09-16T10:03:30;15.70;99.90
63897;DHT22;50063;52.084;5.414;2022-09-16T10:05:57;15.50;99.90
63897;DHT22;50063;52.084;5.414;2022-09-16T10:08:25;15.50;99.90
63897;DHT22;50063;52.084;5.414;2022-09-16T10:13:20;15.80;99.90
63897;DHT22;50063;52.084;5.414;2022-09-16T10:15:47;15.90;99.90
63897;DHT22;50063;52.084;5.414;2022-09-16T10:18:22;16.00;99.90
63897;DHT22;50063;52.084;5.414;2022-09-16T10:20:57;16.20;99.90
63897;DHT22;50063;52.084;5.414;2022-09-16T10:23:24;16.30;99.90
63897;DHT22;50063;52.084;5.414;2022-09-16T10:26:16;16.10;99.90
63897;DHT22;50063;52.084;5.414;2022-09-16T10:31:42;15.90;99.90
63897;DHT22;50063;52.084;5.414;2022-09-16T10:34:14;15.70;99.90
63897;DHT22;50063;52.084;5.414;2022-09-16T10:36:42;14.90;99.90
63897;DHT22;50063;52.084;5.414;2022-09-16T10:39:19;15.00;99.90
63897;DHT22;50063;52.084;5.414;2022-09-16T10:41:47;15.10;99.90
63897;DHT22;50063;52.084;5.414;2022-09-16T10:44:15;14.90;99.90
63897;DHT22;50063;52.084;5.414;2022-09-16T10:46:50;14.80;99.90
63897;DHT22;50063;52.084;5.414;2022-09-16T10:49:19;14.70;99.90
63897;DHT22;50063;52.084;5.414;2022-09-16T10:51:45;15.00;99.90
63897;DHT22;50063;52.084;5.414;2022-09-16T10:54:22;15.10;99.90
63897;DHT22;50063;52.084;5.414;2022-09-16T10:56:50;15.00;99.90
63897;DHT22;50063;52.084;5.414;2022-09-16T10:59:17;14.90;99.90
63897;DHT22;50063;52.084;5.414;2022-09-16T11:09:19;14.50;99.90
63897;DHT22;50063;52.084;5.414;2022-09-16T11:14:30;14.70;99.90
63897;DHT22;50063;52.084;5.414;2022-09-16T11:17:07;14.70;99.90
63897;DHT22;50063;52.084;5.414;2022-09-16T11:19:45;14.70;99.90
63897;DHT22;50063;52.084;5.414;2022-09-16T11:24:53;14.80;99.90
63897;DHT22;50063;52.084;5.414;2022-09-16T11:33:05;14.80;99.90
63897;DHT22;50063;52.084;5.414;2022-09-16T11:42:40;15.30;99.90
63897;DHT22;50063;52.084;5.414;2022-09-16T11:57:41;15.00;99.90
63897;DHT22;50063;52.084;5.414;2022-09-16T12:00:10;14.90;99.90
63897;DHT22;50063;52.084;5.414;2022-09-16T12:02:39;14.70;99.90
63897;DHT22;50063;52.084;5.414;2022-09-16T12:10:44;14.50;99.90
63897;DHT22;50063;52.084;5.414;2022-09-16T12:13:14;14.40;99.90
63897;DHT22;50063;52.084;5.414;2022-09-16T12:18:16;14.50;99.90
63897;DHT22;50063;52.084;5.414;2022-09-16T12:20:50;14.70;99.90
63897;DHT22;50063;52.084;5.414;2022-09-16T12:23:21;14.70;99.90
63897;DHT22;50063;52.084;5.414;2022-09-16T12:28:26;14.90;99.90
63897;DHT22;50063;52.084;5.414;2022-09-16T12:31:01;14.90;99.90
63897;DHT22;50063;52.084;5.414;2022-09-16T12:33:32;15.10;99.90
63897;DHT22;50063;52.084;5.414;2022-09-16T12:38:30;15.40;99.90
63897;DHT22;50063;52.084;5.414;2022-09-16T12:41:11;15.70;99.90
63897;DHT22;50063;52.084;5.414;2022-09-16T12:43:51;16.00;99.90
63897;DHT22;50063;52.084;5.414;2022-09-16T12:46:45;16.00;99.90
63897;DHT22;50063;52.084;5.414;2022-09-16T12:54:52;15.40;99.90
63897;DHT22;50063;52.084;5.414;2022-09-16T13:00:03;15.40;99.90
63897;DHT22;50063;52.084;5.414;2022-09-16T13:02:35;15.20;99.90
63897;DHT22;50063;52.084;5.414;2022-09-16T13:05:16;15.10;99.90
63897;DHT22;50063;52.084;5.414;2022-09-16T13:07:46;15.00;99.90
63897;DHT22;50063;52.084;5.414;2022-09-16T13:10:16;15.10;99.90
63897;DHT22;50063;52.084;5.414;2022-09-16T13:12:52;15.10;99.90
63897;DHT22;50063;52.084;5.414;2022-09-16T13:15:24;15.20;99.90
63897;DHT22;50063;52.084;5.414;2022-09-16T13:17:51;15.10;99.90
63897;DHT22;50063;52.084;5.414;2022-09-16T13:20:27;15.10;99.90
63897;DHT22;50063;52.084;5.414;2022-09-16T13:23:17;15.20;99.90
63897;DHT22;50063;52.084;5.414;2022-09-16T13:33:47;16.00;99.90
63897;DHT22;50063;52.084;5.414;2022-09-16T13:39:07;16.80;99.90
63897;DHT22;50063;52.084;5.414;2022-09-16T13:41:43;16.70;99.90
63897;DHT22;50063;52.084;5.414;2022-09-16T13:49:41;18.00;99.90
63897;DHT22;50063;52.084;5.414;2022-09-16T13:52:09;18.70;99.90
63897;DHT22;50063;52.084;5.414;2022-09-16T13:54:41;18.90;99.90
63897;DHT22;50063;52.084;5.414;2022-09-16T14:00:24;18.60;99.90
63897;DHT22;50063;52.084;5.414;2022-09-16T14:10:38;19.20;99.90
63897;DHT22;50063;52.084;5.414;2022-09-16T14:13:12;19.00;99.90
63897;DHT22;50063;52.084;5.414;2022-09-16T14:15:39;20.00;99.90
63897;DHT22;50063;52.084;5.414;2022-09-16T14:18:07;20.80;99.90
63897;DHT22;50063;52.084;5.414;2022-09-16T14:20:35;20.20;99.90
63897;DHT22;50063;52.084;5.414;2022-09-16T14:23:03;20.40;99.90
63897;DHT22;50063;52.084;5.414;2022-09-16T14:25:33;20.70;99.90
63897;DHT22;50063;52.084;5.414;2022-09-16T14:30:34;21.00;99.90
63897;DHT22;50063;52.084;5.414;2022-09-16T14:33:00;20.30;99.90
63897;DHT22;50063;52.084;5.414;2022-09-16T14:35:28;19.30;99.90
63897;DHT22;50063;52.084;5.414;2022-09-16T14:37:56;18.70;99.90
63897;DHT22;50063;52.084;5.414;2022-09-16T14:40:24;18.60;99.90
63897;DHT22;50063;52.084;5.414;2022-09-16T14:43:02;18.20;99.90
63897;DHT22;50063;52.084;5.414;2022-09-16T14:45:29;18.30;99.90
63897;DHT22;50063;52.084;5.414;2022-09-16T14:47:57;19.70;99.90
63897;DHT22;50063;52.084;5.414;2022-09-16T14:50:28;20.40;99.90
63897;DHT22;50063;52.084;5.414;2022-09-16T14:53:02;20.50;99.90
63897;DHT22;50063;52.084;5.414;2022-09-16T14:55:30;21.50;99.90
63897;DHT22;50063;52.084;5.414;2022-09-16T14:57:57;22.40;99.90
63897;DHT22;50063;52.084;5.414;2022-09-16T15:00:24;22.30;99.90
63897;DHT22;50063;52.084;5.414;2022-09-16T15:02:54;22.80;99.90
63897;DHT22;50063;52.084;5.414;2022-09-16T15:08:07;23.50;99.90
63897;DHT22;50063;52.084;5.414;2022-09-16T15:10:39;23.70;99.90
63897;DHT22;50063;52.084;5.414;2022-09-16T15:13:18;22.90;99.40
63897;DHT22;50063;52.084;5.414;2022-09-16T15:15:47;23.20;98.60
63897;DHT22;50063;52.084;5.414;2022-09-16T15:18:20;23.40;98.20
63897;DHT22;50063;52.084;5.414;2022-09-16T15:20:49;22.30;98.20
63897;DHT22;50063;52.084;5.414;2022-09-16T15:23:24;22.30;96.90
63897;DHT22;50063;52.084;5.414;2022-09-16T15:25:52;21.90;98.60
63897;DHT22;50063;52.084;5.414;2022-09-16T15:28:20;21.80;97.70
63897;DHT22;50063;52.084;5.414;2022-09-16T15:30:51;21.30;98.90
63897;DHT22;50063;52.084;5.414;2022-09-16T15:33:34;20.10;99.10
63897;DHT22;50063;52.084;5.414;2022-09-16T15:36:01;21.00;99.40
63897;DHT22;50063;52.084;5.414;2022-09-16T15:38:28;21.50;98.50
63897;DHT22;50063;52.084;5.414;2022-09-16T15:43:51;22.60;98.20
63897;DHT22;50063;52.084;5.414;2022-09-16T15:46:19;22.60;98.30
63897;DHT22;50063;52.084;5.414;2022-09-16T15:48:50;21.70;96.20
63897;DHT22;50063;52.084;5.414;2022-09-16T15:51:31;19.70;98.40
63897;DHT22;50063;52.084;5.414;2022-09-16T15:54:44;19.50;98.30
63897;DHT22;50063;52.084;5.414;2022-09-16T16:02:18;18.20;99.90
63897;DHT22;50063;52.084;5.414;2022-09-16T16:04:46;18.40;99.90
63897;DHT22;50063;52.084;5.414;2022-09-16T16:07:15;20.20;99.20
63897;DHT22;50063;52.084;5.414;2022-09-16T16:12:57;20.50;99.30
63897;DHT22;50063;52.084;5.414;2022-09-16T16:15:29;20.90;98.80
63897;DHT22;50063;52.084;5.414;2022-09-16T16:17:57;21.50;99.40
63897;DHT22;50063;52.084;5.414;2022-09-16T16:20:24;21.70;99.00
63897;DHT22;50063;52.084;5.414;2022-09-16T16:22:51;21.50;98.30
63897;DHT22;50063;52.084;5.414;2022-09-16T16:25:19;21.50;98.60
63897;DHT22;50063;52.084;5.414;2022-09-16T16:27:45;21.10;99.00
63897;DHT22;50063;52.084;5.414;2022-09-16T16:30:12;20.40;98.80
63897;DHT22;50063;52.084;5.414;2022-09-16T16:32:38;20.00;99.70
63897;DHT22;50063;52.084;5.414;2022-09-16T16:35:05;19.30;99.90
63897;DHT22;50063;52.084;5.414;2022-09-16T16:37:32;19.10;99.90
63897;DHT22;50063;52.084;5.414;2022-09-16T16:40:12;18.90;99.90
63897;DHT22;50063;52.084;5.414;2022-09-16T16:42:39;18.50;99.90
63897;DHT22;50063;52.084;5.414;2022-09-16T16:45:08;18.20;99.90
63897;DHT22;50063;52.084;5.414;2022-09-16T16:47:36;18.00;99.90
63897;DHT22;50063;52.084;5.414;2022-09-16T16:50:02;17.40;99.90
63897;DHT22;50063;52.084;5.414;2022-09-16T16:52:29;17.20;99.90
63897;DHT22;50063;52.084;5.414;2022-09-16T16:54:55;17.20;99.90
63897;DHT22;50063;52.084;5.414;2022-09-16T16:57:22;17.00;99.90
63897;DHT22;50063;52.084;5.414;2022-09-16T16:59:48;16.90;99.90
63897;DHT22;50063;52.084;5.414;2022-09-16T17:02:15;16.40;99.90
63897;DHT22;50063;52.084;5.414;2022-09-16T17:04:42;16.10;99.90
63897;DHT22;50063;52.084;5.414;2022-09-16T17:07:08;16.10;99.90
63897;DHT22;50063;52.084;5.414;2022-09-16T17:09:53;16.20;99.90
63897;DHT22;50063;52.084;5.414;2022-09-16T17:12:20;15.90;99.90
63897;DHT22;50063;52.084;5.414;2022-09-16T17:14:46;15.80;99.90
63897;DHT22;50063;52.084;5.414;2022-09-16T17:17:13;15.70;99.90
63897;DHT22;50063;52.084;5.414;2022-09-16T17:19:39;15.70;99.90
63897;DHT22;50063;52.084;5.414;2022-09-16T17:22:06;15.60;99.90
63897;DHT22;50063;52.084;5.414;2022-09-16T17:24:32;15.50;99.90
63897;DHT22;50063;52.084;5.414;2022-09-16T17:27:00;15.30;99.90
63897;DHT22;50063;52.084;5.414;2022-09-16T17:29:27;15.30;99.90
63897;DHT22;50063;52.084;5.414;2022-09-16T17:31:53;15.10;99.90
63897;DHT22;50063;52.084;5.414;2022-09-16T17:34:22;15.20;99.90
63897;DHT22;50063;52.084;5.414;2022-09-16T17:36:49;14.90;99.90
63897;DHT22;50063;52.084;5.414;2022-09-16T17:39:16;15.00;99.90
63897;DHT22;50063;52.084;5.414;2022-09-16T17:41:44;14.80;99.90
63897;DHT22;50063;52.084;5.414;2022-09-16T17:44:11;14.80;99.90
63897;DHT22;50063;52.084;5.414;2022-09-16T17:46:38;14.80;99.90
63897;DHT22;50063;52.084;5.414;2022-09-16T17:49:07;14.70;99.90
63897;DHT22;50063;52.084;5.414;2022-09-16T17:51:36;14.50;99.90
63897;DHT22;50063;52.084;5.414;2022-09-16T17:54:03;14.60;99.90
63897;DHT22;50063;52.084;5.414;2022-09-16T17:56:29;14.50;99.90
63897;DHT22;50063;52.084;5.414;2022-09-16T17:58:56;14.40;99.90
63897;DHT22;50063;52.084;5.414;2022-09-16T18:01:23;14.30;99.90
63897;DHT22;50063;52.084;5.414;2022-09-16T18:03:51;14.20;99.90
63897;DHT22;50063;52.084;5.414;2022-09-16T18:06:25;14.10;99.90
63897;DHT22;50063;52.084;5.414;2022-09-16T18:08:53;14.10;99.90
63897;DHT22;50063;52.084;5.414;2022-09-16T18:11:20;14.00;99.90
63897;DHT22;50063;52.084;5.414;2022-09-16T18:13:47;14.00;99.90
63897;DHT22;50063;52.084;5.414;2022-09-16T18:16:14;14.00;99.90
63897;DHT22;50063;52.084;5.414;2022-09-16T18:18:42;14.00;99.90
63897;DHT22;50063;52.084;5.414;2022-09-16T18:21:10;13.90;99.90
63897;DHT22;50063;52.084;5.414;2022-09-16T18:23:37;13.90;99.90
63897;DHT22;50063;52.084;5.414;2022-09-16T18:26:04;13.90;99.90
63897;DHT22;50063;52.084;5.414;2022-09-16T18:28:34;13.80;99.90
63897;DHT22;50063;52.084;5.414;2022-09-16T18:31:21;13.80;99.90
63897;DHT22;50063;52.084;5.414;2022-09-16T18:33:50;13.90;99.90
63897;DHT22;50063;52.084;5.414;2022-09-16T18:36:17;13.70;99.90
63897;DHT22;50063;52.084;5.414;2022-09-16T18:38:43;13.60;99.90
63897;DHT22;50063;52.084;5.414;2022-09-16T18:41:17;13.50;99.90
63897;DHT22;50063;52.084;5.414;2022-09-16T18:43:45;13.40;99.90